sensor_id;sensor_type;location;lat;lon;timestamp;pressure;altitude;pressure_sealevel;temperature;humidity
8758;BME280;4415;42.152;24.744;2023-08-30T00:02:20;98371.16;;;23.57;nan
8758;BME280;4415;42.152;24.744;2023-08-30T00:04:45;98335.81;;;23.34;nan
8758;BME280;4415;42.152;24.744;2023-08-30T00:09:36;98356.28;;;23.33;nan
8758;BME280;4415;42.152;24.744;2023-08-30T00:12:02;98363.44;;;23.23;nan
8758;BME280;4415;42.152;24.744;2023-08-30T00:16:53;98364.25;;;23.17;nan
8758;BME280;4415;42.152;24.744;2023-08-30T00:19:18;98354.81;;;23.11;nan
8758;BME280;4415;42.152;24.744;2023-08-30T00:21:44;98353.25;;;23.13;nan
8758;BME280;4415;42.152;24.744;2023-08-30T00:24:09;98373.69;;;23.19;nan
8758;BME280;4415;42.152;24.744;2023-08-30T00:26:35;98377.97;;;23.24;nan
8758;BME280;4415;42.152;24.744;2023-08-30T00:29:00;98352.38;;;23.27;nan
8758;BME280;4415;42.152;24.744;2023-08-30T00:31:26;98348.47;;;23.21;nan
8758;BME280;4415;42.152;24.744;2023-08-30T00:33:51;98364.25;;;23.17;nan
8758;BME280;4415;42.152;24.744;2023-08-30T00:38:43;98362.75;;;23.02;nan
8758;BME280;4415;42.152;24.744;2023-08-30T00:41:09;98354.13;;;22.89;nan
8758;BME280;4415;42.152;24.744;2023-08-30T00:43:34;98355.69;;;22.90;nan
8758;BME280;4415;42.152;24.744;2023-08-30T00:46:00;98352.59;;;22.74;nan
8758;BME280;4415;42.152;24.744;2023-08-30T00:50:51;98366.78;;;22.72;nan
8758;BME280;4415;42.152;24.744;2023-08-30T00:53:17;98373.09;;;22.69;nan
8758;BME280;4415;42.152;24.744;2023-08-30T00:55:43;98355.78;;;22.62;nan
8758;BME280;4415;42.152;24.744;2023-08-30T00:58:09;98365.22;;;22.64;nan
8758;BME280;4415;42.152;24.744;2023-08-30T01:00:35;98358.91;;;22.60;nan
8758;BME280;4415;42.152;24.744;2023-08-30T01:03:01;98362.84;;;22.59;nan
8758;BME280;4415;42.152;24.744;2023-08-30T01:05:26;98361.28;;;22.58;nan
8758;BME280;4415;42.152;24.744;2023-08-30T01:07:52;98368.38;;;22.52;nan
8758;BME280;4415;42.152;24.744;2023-08-30T01:10:26;98366.03;;;22.40;nan
8758;BME280;4415;42.152;24.744;2023-08-30T01:13:01;98377.84;;;22.30;nan
8758;BME280;4415;42.152;24.744;2023-08-30T01:17:56;98377.84;;;22.16;nan
8758;BME280;4415;42.152;24.744;2023-08-30T01:20:23;98387.28;;;22.11;nan
8758;BME280;4415;42.152;24.744;2023-08-30T01:28:31;98383.34;;;22.12;nan
8758;BME280;4415;42.152;24.744;2023-08-30T01:35:50;98375.47;;;22.14;nan
8758;BME280;4415;42.152;24.744;2023-08-30T01:38:16;98325.94;;;22.25;nan
8758;BME280;4415;42.152;24.744;2023-08-30T01:40:43;98392.78;;;22.32;nan
8758;BME280;4415;42.152;24.744;2023-08-30T01:43:10;98396.69;;;22.39;nan
8758;BME280;4415;42.152;24.744;2023-08-30T01:45:41;98390.41;;;22.42;nan
8758;BME280;4415;42.152;24.744;2023-08-30T01:48:09;98382.56;;;22.40;nan
8758;BME280;4415;42.152;24.744;2023-08-30T01:50:36;98331.44;;;22.39;nan
8758;BME280;4415;42.152;24.744;2023-08-30T01:55:29;98392.75;;;22.50;nan
8758;BME280;4415;42.152;24.744;2023-08-30T01:57:55;98396.69;;;22.56;nan
8758;BME280;4415;42.152;24.744;2023-08-30T02:00:21;98412.41;;;22.56;nan
8758;BME280;4415;42.152;24.744;2023-08-30T02:02:47;98410.88;;;22.41;nan
8758;BME280;4415;42.152;24.744;2023-08-30T02:05:13;98334.22;;;22.32;nan
8758;BME280;4415;42.152;24.744;2023-08-30T02:08:03;98397.50;;;22.28;nan
8758;BME280;4415;42.152;24.744;2023-08-30T02:10:40;98329.91;;;22.24;nan
8758;BME280;4415;42.152;24.744;2023-08-30T02:13:06;98406.94;;;22.24;nan
8758;BME280;4415;42.152;24.744;2023-08-30T02:15:33;98394.34;;;22.26;nan
8758;BME280;4415;42.152;24.744;2023-08-30T02:18:01;98306.31;;;22.16;nan
8758;BME280;4415;42.152;24.744;2023-08-30T02:22:58;98391.22;;;22.21;nan
8758;BME280;4415;42.152;24.744;2023-08-30T02:25:24;98392.00;;;22.21;nan
8758;BME280;4415;42.152;24.744;2023-08-30T02:30:15;98384.91;;;22.20;nan
8758;BME280;4415;42.152;24.744;2023-08-30T02:32:40;98382.56;;;22.12;nan
8758;BME280;4415;42.152;24.744;2023-08-30T02:35:06;98388.84;;;21.98;nan
8758;BME280;4415;42.152;24.744;2023-08-30T02:37:31;98392.00;;;22.07;nan
8758;BME280;4415;42.152;24.744;2023-08-30T02:42:22;98382.56;;;22.19;nan
8758;BME280;4415;42.152;24.744;2023-08-30T02:44:47;98382.56;;;22.29;nan
8758;BME280;4415;42.152;24.744;2023-08-30T02:47:13;98388.06;;;22.40;nan
8758;BME280;4415;42.152;24.744;2023-08-30T02:59:19;98400.63;;;22.34;nan
8758;BME280;4415;42.152;24.744;2023-08-30T03:01:45;98397.50;;;22.32;nan
8758;BME280;4415;42.152;24.744;2023-08-30T03:04:10;98413.22;;;22.31;nan
8758;BME280;4415;42.152;24.744;2023-08-30T03:09:02;98413.22;;;22.35;nan
8758;BME280;4415;42.152;24.744;2023-08-30T03:11:28;98406.91;;;22.31;nan
8758;BME280;4415;42.152;24.744;2023-08-30T03:13:54;98414.00;;;22.28;nan
8758;BME280;4415;42.152;24.744;2023-08-30T03:16:20;98388.06;;;22.12;nan
8758;BME280;4415;42.152;24.744;2023-08-30T03:18:46;98403.78;;;22.15;nan
8758;BME280;4415;42.152;24.744;2023-08-30T03:23:37;98423.44;;;22.10;nan
8758;BME280;4415;42.152;24.744;2023-08-30T03:26:10;98429.72;;;22.07;nan
8758;BME280;4415;42.152;24.744;2023-08-30T03:31:01;98438.34;;;22.02;nan
8758;BME280;4415;42.152;24.744;2023-08-30T03:35:52;98505.91;;;21.96;nan
8758;BME280;4415;42.152;24.744;2023-08-30T03:38:17;98441.50;;;21.97;nan
8758;BME280;4415;42.152;24.744;2023-08-30T03:45:37;98440.72;;;22.00;nan
8758;BME280;4415;42.152;24.744;2023-08-30T03:48:03;98441.88;;;22.09;nan
8758;BME280;4415;42.152;24.744;2023-08-30T03:52:54;98452.53;;;22.28;nan
8758;BME280;4415;42.152;24.744;2023-08-30T03:55:20;98443.06;;;22.33;nan
8758;BME280;4415;42.152;24.744;2023-08-30T03:57:46;98435.22;;;22.42;nan
8758;BME280;4415;42.152;24.744;2023-08-30T04:02:37;98452.50;;;22.60;nan
8758;BME280;4415;42.152;24.744;2023-08-30T04:07:29;98440.72;;;22.77;nan
8758;BME280;4415;42.152;24.744;2023-08-30T04:09:54;98454.81;;;23.01;nan
8758;BME280;4415;42.152;24.744;2023-08-30T04:12:20;98443.75;;;23.25;nan
8758;BME280;4415;42.152;24.744;2023-08-30T04:14:45;98475.94;;;23.53;nan
8758;BME280;4415;42.152;24.744;2023-08-30T04:22:01;98451.63;;;24.54;nan
8758;BME280;4415;42.152;24.744;2023-08-30T04:26:51;98461.31;;;25.17;nan
8758;BME280;4415;42.152;24.744;2023-08-30T04:29:18;98468.72;;;25.58;nan
8758;BME280;4415;42.152;24.744;2023-08-30T04:36:34;98467.25;;;26.60;nan
8758;BME280;4415;42.152;24.744;2023-08-30T04:38:59;98473.19;;;27.05;nan
8758;BME280;4415;42.152;24.744;2023-08-30T04:41:25;98469.69;;;27.44;nan
8758;BME280;4415;42.152;24.744;2023-08-30T04:43:50;98462.59;;;27.79;nan
8758;BME280;4415;42.152;24.744;2023-08-30T04:46:16;98463.50;;;28.44;nan
8758;BME280;4415;42.152;24.744;2023-08-30T04:48:41;98468.53;;;28.33;nan
8758;BME280;4415;42.152;24.744;2023-08-30T04:51:06;98477.72;;;28.46;nan
8758;BME280;4415;42.152;24.744;2023-08-30T04:53:32;98455.41;;;28.17;nan
8758;BME280;4415;42.152;24.744;2023-08-30T05:03:13;98460.00;;;29.74;nan
8758;BME280;4415;42.152;24.744;2023-08-30T05:05:39;98469.19;;;29.59;nan
8758;BME280;4415;42.152;24.744;2023-08-30T05:08:04;98475.53;;;29.88;nan
8758;BME280;4415;42.152;24.744;2023-08-30T05:12:55;98467.88;;;27.14;nan
8758;BME280;4415;42.152;24.744;2023-08-30T05:15:21;98468.91;;;26.54;nan
8758;BME280;4415;42.152;24.744;2023-08-30T05:22:37;98482.16;;;28.27;nan
8758;BME280;4415;42.152;24.744;2023-08-30T05:25:02;98489.94;;;29.29;nan
8758;BME280;4415;42.152;24.744;2023-08-30T05:27:28;98481.19;;;29.84;nan
8758;BME280;4415;42.152;24.744;2023-08-30T05:29:53;98490.44;;;31.38;nan
8758;BME280;4415;42.152;24.744;2023-08-30T05:32:21;98474.53;;;32.62;nan
8758;BME280;4415;42.152;24.744;2023-08-30T05:34:47;98488.78;;;33.40;nan
8758;BME280;4415;42.152;24.744;2023-08-30T05:37:12;98487.13;;;33.93;nan
8758;BME280;4415;42.152;24.744;2023-08-30T05:39:38;98494.88;;;34.49;nan
8758;BME280;4415;42.152;24.744;2023-08-30T05:42:04;98488.69;;;33.94;nan
8758;BME280;4415;42.152;24.744;2023-08-30T05:44:29;98490.56;;;34.39;nan
8758;BME280;4415;42.152;24.744;2023-08-30T05:46:54;98499.44;;;34.70;nan
8758;BME280;4415;42.152;24.744;2023-08-30T05:49:20;98497.53;;;35.24;nan
8758;BME280;4415;42.152;24.744;2023-08-30T05:51:45;98488.47;;;34.82;nan
8758;BME280;4415;42.152;24.744;2023-08-30T05:54:13;98500.38;;;32.84;nan
8758;BME280;4415;42.152;24.744;2023-08-30T05:56:38;98521.63;;;31.37;nan
8758;BME280;4415;42.152;24.744;2023-08-30T06:01:29;98513.06;;;31.96;nan
8758;BME280;4415;42.152;24.744;2023-08-30T06:03:54;98515.69;;;31.69;nan
8758;BME280;4415;42.152;24.744;2023-08-30T06:06:20;98513.63;;;30.92;nan
8758;BME280;4415;42.152;24.744;2023-08-30T06:08:46;98495.44;;;29.86;nan
8758;BME280;4415;42.152;24.744;2023-08-30T06:11:11;98518.72;;;29.51;nan
8758;BME280;4415;42.152;24.744;2023-08-30T06:13:37;98519.25;;;28.37;nan
8758;BME280;4415;42.152;24.744;2023-08-30T06:16:03;98528.53;;;27.75;nan
8758;BME280;4415;42.152;24.744;2023-08-30T06:18:30;98520.41;;;27.44;nan
8758;BME280;4415;42.152;24.744;2023-08-30T06:20:57;98515.38;;;27.59;nan
8758;BME280;4415;42.152;24.744;2023-08-30T06:23:22;98525.53;;;27.46;nan
8758;BME280;4415;42.152;24.744;2023-08-30T06:25:55;98529.16;;;27.82;nan
8758;BME280;4415;42.152;24.744;2023-08-30T06:28:21;98516.50;;;29.46;nan
8758;BME280;4415;42.152;24.744;2023-08-30T06:30:47;98525.81;;;30.60;nan
8758;BME280;4415;42.152;24.744;2023-08-30T06:33:12;98524.31;;;31.28;nan
8758;BME280;4415;42.152;24.744;2023-08-30T06:35:38;98524.78;;;32.44;nan
8758;BME280;4415;42.152;24.744;2023-08-30T06:38:08;98521.53;;;33.03;nan
8758;BME280;4415;42.152;24.744;2023-08-30T06:40:33;98515.38;;;33.35;nan
8758;BME280;4415;42.152;24.744;2023-08-30T06:42:59;98528.28;;;33.15;nan
8758;BME280;4415;42.152;24.744;2023-08-30T06:45:24;98527.00;;;32.49;nan
8758;BME280;4415;42.152;24.744;2023-08-30T06:47:50;98591.75;;;33.99;nan
8758;BME280;4415;42.152;24.744;2023-08-30T06:50:17;98531.69;;;33.28;nan
8758;BME280;4415;42.152;24.744;2023-08-30T06:52:42;98539.56;;;34.20;nan
8758;BME280;4415;42.152;24.744;2023-08-30T06:55:08;98548.69;;;34.81;nan
8758;BME280;4415;42.152;24.744;2023-08-30T06:57:33;98535.28;;;35.47;nan
8758;BME280;4415;42.152;24.744;2023-08-30T06:59:59;98536.00;;;35.56;nan
8758;BME280;4415;42.152;24.744;2023-08-30T07:02:30;98550.41;;;34.78;nan
8758;BME280;4415;42.152;24.744;2023-08-30T07:04:56;98550.34;;;35.58;nan
8758;BME280;4415;42.152;24.744;2023-08-30T07:07:21;98535.34;;;36.84;nan
8758;BME280;4415;42.152;24.744;2023-08-30T07:09:47;98549.53;;;37.30;nan
8758;BME280;4415;42.152;24.744;2023-08-30T07:12:12;98540.19;;;37.38;nan
8758;BME280;4415;42.152;24.744;2023-08-30T07:14:38;98544.69;;;37.96;nan
8758;BME280;4415;42.152;24.744;2023-08-30T07:17:03;98534.97;;;37.97;nan
8758;BME280;4415;42.152;24.744;2023-08-30T07:19:29;98547.56;;;37.36;nan
8758;BME280;4415;42.152;24.744;2023-08-30T07:21:54;98545.34;;;36.35;nan
8758;BME280;4415;42.152;24.744;2023-08-30T07:24:20;98548.75;;;37.29;nan
8758;BME280;4415;42.152;24.744;2023-08-30T07:26:47;98541.28;;;38.49;nan
8758;BME280;4415;42.152;24.744;2023-08-30T07:29:13;98532.06;;;39.45;nan
8758;BME280;4415;42.152;24.744;2023-08-30T07:31:38;98550.00;;;39.25;nan
8758;BME280;4415;42.152;24.744;2023-08-30T07:36:33;98533.41;;;39.55;nan
8758;BME280;4415;42.152;24.744;2023-08-30T07:38:58;98523.44;;;37.75;nan
8758;BME280;4415;42.152;24.744;2023-08-30T07:43:49;98535.13;;;38.19;nan
8758;BME280;4415;42.152;24.744;2023-08-30T07:46:15;98532.03;;;37.66;nan
8758;BME280;4415;42.152;24.744;2023-08-30T07:48:40;98539.22;;;38.81;nan
8758;BME280;4415;42.152;24.744;2023-08-30T07:51:06;98539.44;;;40.51;nan
8758;BME280;4415;42.152;24.744;2023-08-30T07:53:31;98538.16;;;40.35;nan
8758;BME280;4415;42.152;24.744;2023-08-30T07:55:56;98540.19;;;40.74;nan
8758;BME280;4415;42.152;24.744;2023-08-30T07:58:22;98537.34;;;40.79;nan
8758;BME280;4415;42.152;24.744;2023-08-30T08:00:51;98539.16;;;40.93;nan
8758;BME280;4415;42.152;24.744;2023-08-30T08:03:17;98535.06;;;41.52;nan
8758;BME280;4415;42.152;24.744;2023-08-30T08:05:42;98536.56;;;42.35;nan
8758;BME280;4415;42.152;24.744;2023-08-30T08:08:08;98560.03;;;42.95;nan
8758;BME280;4415;42.152;24.744;2023-08-30T08:10:36;98531.81;;;44.14;nan
8758;BME280;4415;42.152;24.744;2023-08-30T08:13:01;98538.09;;;44.71;nan
8758;BME280;4415;42.152;24.744;2023-08-30T08:15:29;98518.59;;;45.40;nan
8758;BME280;4415;42.152;24.744;2023-08-30T08:17:56;98525.25;;;45.56;nan
8758;BME280;4415;42.152;24.744;2023-08-30T08:20:22;98524.63;;;45.37;nan
8758;BME280;4415;42.152;24.744;2023-08-30T08:22:47;98517.97;;;46.22;nan
8758;BME280;4415;42.152;24.744;2023-08-30T08:25:13;98527.31;;;46.44;nan
8758;BME280;4415;42.152;24.744;2023-08-30T08:27:38;98523.94;;;47.09;nan
8758;BME280;4415;42.152;24.744;2023-08-30T08:30:04;98539.06;;;45.99;nan
8758;BME280;4415;42.152;24.744;2023-08-30T08:32:30;98524.28;;;45.40;nan
8758;BME280;4415;42.152;24.744;2023-08-30T08:34:57;98519.78;;;46.12;nan
8758;BME280;4415;42.152;24.744;2023-08-30T08:37:22;98521.59;;;45.68;nan
8758;BME280;4415;42.152;24.744;2023-08-30T08:39:48;98523.50;;;44.61;nan
8758;BME280;4415;42.152;24.744;2023-08-30T08:42:18;98518.63;;;44.43;nan
8758;BME280;4415;42.152;24.744;2023-08-30T08:44:46;98509.19;;;44.03;nan
8758;BME280;4415;42.152;24.744;2023-08-30T08:47:15;98493.91;;;45.77;nan
8758;BME280;4415;42.152;24.744;2023-08-30T08:49:42;98490.53;;;46.68;nan
8758;BME280;4415;42.152;24.744;2023-08-30T08:52:07;98493.91;;;47.16;nan
8758;BME280;4415;42.152;24.744;2023-08-30T08:54:33;98500.59;;;44.80;nan
8758;BME280;4415;42.152;24.744;2023-08-30T08:56:59;98494.84;;;46.13;nan
8758;BME280;4415;42.152;24.744;2023-08-30T08:59:26;98495.47;;;47.24;nan
8758;BME280;4415;42.152;24.744;2023-08-30T09:01:52;98485.22;;;46.23;nan
8758;BME280;4415;42.152;24.744;2023-08-30T09:04:20;98501.38;;;46.00;nan
8758;BME280;4415;42.152;24.744;2023-08-30T09:06:45;98489.09;;;45.38;nan
8758;BME280;4415;42.152;24.744;2023-08-30T09:09:12;98491.47;;;41.49;nan
8758;BME280;4415;42.152;24.744;2023-08-30T09:11:38;98488.44;;;43.89;nan
8758;BME280;4415;42.152;24.744;2023-08-30T09:14:03;98492.59;;;44.52;nan
8758;BME280;4415;42.152;24.744;2023-08-30T09:16:29;98485.25;;;42.57;nan
8758;BME280;4415;42.152;24.744;2023-08-30T09:19:01;98475.38;;;41.68;nan
8758;BME280;4415;42.152;24.744;2023-08-30T09:21:28;98480.56;;;42.59;nan
8758;BME280;4415;42.152;24.744;2023-08-30T09:24:02;98468.78;;;42.50;nan
8758;BME280;4415;42.152;24.744;2023-08-30T09:26:28;98472.31;;;43.23;nan
8758;BME280;4415;42.152;24.744;2023-08-30T09:28:55;98467.47;;;42.51;nan
8758;BME280;4415;42.152;24.744;2023-08-30T09:31:21;98482.34;;;42.62;nan
8758;BME280;4415;42.152;24.744;2023-08-30T09:33:47;98474.47;;;41.90;nan
8758;BME280;4415;42.152;24.744;2023-08-30T09:36:15;98459.19;;;41.99;nan
8758;BME280;4415;42.152;24.744;2023-08-30T09:38:40;98458.03;;;41.42;nan
8758;BME280;4415;42.152;24.744;2023-08-30T09:41:06;98454.69;;;42.14;nan
8758;BME280;4415;42.152;24.744;2023-08-30T09:43:34;98454.81;;;40.14;nan
8758;BME280;4415;42.152;24.744;2023-08-30T09:46:06;98462.50;;;41.67;nan
8758;BME280;4415;42.152;24.744;2023-08-30T09:48:32;98457.75;;;42.16;nan
8758;BME280;4415;42.152;24.744;2023-08-30T09:50:58;98458.91;;;40.35;nan
8758;BME280;4415;42.152;24.744;2023-08-30T09:53:29;98456.84;;;40.41;nan
8758;BME280;4415;42.152;24.744;2023-08-30T09:55:58;98447.53;;;40.69;nan
8758;BME280;4415;42.152;24.744;2023-08-30T09:58:48;98446.03;;;41.60;nan
8758;BME280;4415;42.152;24.744;2023-08-30T10:01:14;98447.53;;;42.32;nan
8758;BME280;4415;42.152;24.744;2023-08-30T10:03:42;98451.41;;;42.05;nan
8758;BME280;4415;42.152;24.744;2023-08-30T10:06:08;98451.97;;;42.27;nan
8758;BME280;4415;42.152;24.744;2023-08-30T10:08:34;98442.19;;;41.58;nan
8758;BME280;4415;42.152;24.744;2023-08-30T10:11:02;98432.38;;;40.44;nan
8758;BME280;4415;42.152;24.744;2023-08-30T10:13:29;98428.31;;;39.67;nan
8758;BME280;4415;42.152;24.744;2023-08-30T10:16:00;98410.56;;;38.27;nan
8758;BME280;4415;42.152;24.744;2023-08-30T10:18:29;98390.47;;;38.13;nan
8758;BME280;4415;42.152;24.744;2023-08-30T10:20:56;98427.50;;;39.33;nan
8758;BME280;4415;42.152;24.744;2023-08-30T10:23:24;98439.16;;;38.93;nan
8758;BME280;4415;42.152;24.744;2023-08-30T10:25:52;98428.31;;;38.80;nan
8758;BME280;4415;42.152;24.744;2023-08-30T10:28:19;98423.41;;;38.75;nan
8758;BME280;4415;42.152;24.744;2023-08-30T10:30:46;98415.19;;;40.03;nan
8758;BME280;4415;42.152;24.744;2023-08-30T10:33:13;98423.38;;;39.46;nan
8758;BME280;4415;42.152;24.744;2023-08-30T10:35:49;98425.41;;;38.21;nan
8758;BME280;4415;42.152;24.744;2023-08-30T10:38:24;98419.94;;;37.30;nan
8758;BME280;4415;42.152;24.744;2023-08-30T10:40:52;98410.41;;;38.47;nan
8758;BME280;4415;42.152;24.744;2023-08-30T10:43:28;98421.75;;;39.11;nan
8758;BME280;4415;42.152;24.744;2023-08-30T10:46:04;98413.81;;;38.62;nan
8758;BME280;4415;42.152;24.744;2023-08-30T10:48:39;98376.56;;;37.42;nan
8758;BME280;4415;42.152;24.744;2023-08-30T10:51:06;98406.38;;;35.63;nan
8758;BME280;4415;42.152;24.744;2023-08-30T10:53:32;98411.78;;;35.52;nan
8758;BME280;4415;42.152;24.744;2023-08-30T10:56:09;98395.66;;;35.97;nan
8758;BME280;4415;42.152;24.744;2023-08-30T10:58:44;98399.56;;;36.94;nan
8758;BME280;4415;42.152;24.744;2023-08-30T11:01:10;98403.34;;;36.31;nan
8758;BME280;4415;42.152;24.744;2023-08-30T11:03:39;98397.22;;;35.98;nan
8758;BME280;4415;42.152;24.744;2023-08-30T11:06:05;98408.72;;;36.49;nan
8758;BME280;4415;42.152;24.744;2023-08-30T11:08:31;98415.81;;;36.10;nan
8758;BME280;4415;42.152;24.744;2023-08-30T11:11:04;98404.00;;;36.06;nan
8758;BME280;4415;42.152;24.744;2023-08-30T11:13:30;98411.78;;;35.52;nan
8758;BME280;4415;42.152;24.744;2023-08-30T11:16:02;98383.50;;;35.56;nan
8758;BME280;4415;42.152;24.744;2023-08-30T11:18:30;98347.09;;;36.31;nan
8758;BME280;4415;42.152;24.744;2023-08-30T11:21:02;98410.28;;;36.50;nan
8758;BME280;4415;42.152;24.744;2023-08-30T11:23:28;98317.72;;;35.97;nan
8758;BME280;4415;42.152;24.744;2023-08-30T11:25:54;98387.31;;;36.17;nan
8758;BME280;4415;42.152;24.744;2023-08-30T11:28:26;98376.16;;;36.42;nan
8758;BME280;4415;42.152;24.744;2023-08-30T11:30:55;98372.44;;;35.81;nan
8758;BME280;4415;42.152;24.744;2023-08-30T11:33:21;98384.84;;;35.31;nan
8758;BME280;4415;42.152;24.744;2023-08-30T11:35:50;98381.59;;;34.23;nan
8758;BME280;4415;42.152;24.744;2023-08-30T11:38:18;98397.13;;;34.81;nan
8758;BME280;4415;42.152;24.744;2023-08-30T11:40:45;98378.50;;;34.68;nan
8758;BME280;4415;42.152;24.744;2023-08-30T11:43:11;98376.59;;;34.75;nan
8758;BME280;4415;42.152;24.744;2023-08-30T11:45:36;98370.09;;;35.21;nan
8758;BME280;4415;42.152;24.744;2023-08-30T11:48:02;98325.59;;;35.29;nan
8758;BME280;4415;42.152;24.744;2023-08-30T11:50:28;98368.25;;;36.26;nan
8758;BME280;4415;42.152;24.744;2023-08-30T11:52:54;98358.88;;;36.15;nan
8758;BME280;4415;42.152;24.744;2023-08-30T11:55:21;98356.97;;;35.42;nan
8758;BME280;4415;42.152;24.744;2023-08-30T11:57:50;98356.91;;;35.86;nan
8758;BME280;4415;42.152;24.744;2023-08-30T12:00:18;98371.44;;;34.49;nan
8758;BME280;4415;42.152;24.744;2023-08-30T12:02:45;98363.13;;;34.40;nan
8758;BME280;4415;42.152;24.744;2023-08-30T12:05:14;98353.16;;;34.16;nan
8758;BME280;4415;42.152;24.744;2023-08-30T12:07:41;98345.47;;;34.25;nan
8758;BME280;4415;42.152;24.744;2023-08-30T12:10:10;98364.06;;;34.04;nan
8758;BME280;4415;42.152;24.744;2023-08-30T12:12:36;98356.31;;;34.32;nan
8758;BME280;4415;42.152;24.744;2023-08-30T12:15:12;98349.97;;;35.38;nan
8758;BME280;4415;42.152;24.744;2023-08-30T12:17:38;98353.09;;;35.10;nan
8758;BME280;4415;42.152;24.744;2023-08-30T12:20:04;98342.44;;;35.29;nan
8758;BME280;4415;42.152;24.744;2023-08-30T12:22:39;98341.84;;;35.40;nan
8758;BME280;4415;42.152;24.744;2023-08-30T12:25:15;98340.47;;;35.35;nan
8758;BME280;4415;42.152;24.744;2023-08-30T12:27:42;98312.72;;;35.86;nan
8758;BME280;4415;42.152;24.744;2023-08-30T12:30:07;98326.78;;;36.21;nan
8758;BME280;4415;42.152;24.744;2023-08-30T12:32:33;98311.41;;;36.22;nan
8758;BME280;4415;42.152;24.744;2023-08-30T12:34:58;98310.56;;;36.51;nan
8758;BME280;4415;42.152;24.744;2023-08-30T12:37:24;98316.06;;;35.56;nan
8758;BME280;4415;42.152;24.744;2023-08-30T12:39:49;98351.19;;;34.54;nan
8758;BME280;4415;42.152;24.744;2023-08-30T12:42:15;98326.38;;;34.38;nan
8758;BME280;4415;42.152;24.744;2023-08-30T12:44:40;98322.84;;;34.29;nan
8758;BME280;4415;42.152;24.744;2023-08-30T12:47:06;98312.13;;;34.65;nan
8758;BME280;4415;42.152;24.744;2023-08-30T12:49:31;98306.38;;;34.84;nan
8758;BME280;4415;42.152;24.744;2023-08-30T12:51:57;98312.56;;;34.73;nan
8758;BME280;4415;42.152;24.744;2023-08-30T12:54:22;98300.94;;;34.80;nan
8758;BME280;4415;42.152;24.744;2023-08-30T12:56:47;98296.88;;;34.96;nan
8758;BME280;4415;42.152;24.744;2023-08-30T12:59:13;98296.75;;;34.37;nan
8758;BME280;4415;42.152;24.744;2023-08-30T13:01:38;98293.19;;;34.90;nan
8758;BME280;4415;42.152;24.744;2023-08-30T13:04:04;98278.47;;;34.95;nan
8758;BME280;4415;42.152;24.744;2023-08-30T13:06:29;98290.56;;;34.33;nan
8758;BME280;4415;42.152;24.744;2023-08-30T13:08:55;98291.16;;;34.37;nan
8758;BME280;4415;42.152;24.744;2023-08-30T13:11:20;98284.75;;;34.22;nan
8758;BME280;4415;42.152;24.744;2023-08-30T13:13:46;98281.03;;;34.16;nan
8758;BME280;4415;42.152;24.744;2023-08-30T13:16:11;98277.38;;;34.01;nan
8758;BME280;4415;42.152;24.744;2023-08-30T13:18:37;98289.19;;;34.29;nan
8758;BME280;4415;42.152;24.744;2023-08-30T13:21:02;98266.22;;;34.39;nan
8758;BME280;4415;42.152;24.744;2023-08-30T13:23:29;98253.69;;;34.02;nan
8758;BME280;4415;42.152;24.744;2023-08-30T13:25:54;98257.31;;;34.41;nan
8758;BME280;4415;42.152;24.744;2023-08-30T13:28:20;98255.38;;;34.32;nan
8758;BME280;4415;42.152;24.744;2023-08-30T13:30:46;98254.25;;;34.53;nan
8758;BME280;4415;42.152;24.744;2023-08-30T13:33:11;98258.16;;;34.56;nan
8758;BME280;4415;42.152;24.744;2023-08-30T13:35:40;98306.84;;;34.44;nan
8758;BME280;4415;42.152;24.744;2023-08-30T13:38:05;98254.38;;;34.73;nan
8758;BME280;4415;42.152;24.744;2023-08-30T13:40:31;98253.53;;;34.97;nan
8758;BME280;4415;42.152;24.744;2023-08-30T13:42:56;98244.41;;;34.58;nan
8758;BME280;4415;42.152;24.744;2023-08-30T13:45:22;98260.47;;;34.57;nan
8758;BME280;4415;42.152;24.744;2023-08-30T13:47:47;98266.09;;;34.87;nan
8758;BME280;4415;42.152;24.744;2023-08-30T13:50:13;98249.50;;;35.12;nan
8758;BME280;4415;42.152;24.744;2023-08-30T13:55:04;98241.09;;;35.47;nan
8758;BME280;4415;42.152;24.744;2023-08-30T13:57:30;98246.50;;;35.51;nan
8758;BME280;4415;42.152;24.744;2023-08-30T13:59:55;98248.91;;;35.23;nan
8758;BME280;4415;42.152;24.744;2023-08-30T14:02:21;98243.84;;;34.98;nan
8758;BME280;4415;42.152;24.744;2023-08-30T14:04:46;98175.13;;;35.08;nan
8758;BME280;4415;42.152;24.744;2023-08-30T14:07:11;98221.59;;;34.80;nan
8758;BME280;4415;42.152;24.744;2023-08-30T14:09:37;98230.09;;;34.85;nan
8758;BME280;4415;42.152;24.744;2023-08-30T14:12:03;98240.75;;;34.96;nan
8758;BME280;4415;42.152;24.744;2023-08-30T14:14:29;98232.94;;;34.32;nan
8758;BME280;4415;42.152;24.744;2023-08-30T14:16:54;98232.19;;;34.46;nan
8758;BME280;4415;42.152;24.744;2023-08-30T14:19:20;98228.91;;;34.48;nan
8758;BME280;4415;42.152;24.744;2023-08-30T14:21:45;98239.34;;;34.47;nan
8758;BME280;4415;42.152;24.744;2023-08-30T14:24:11;98233.91;;;34.67;nan
8758;BME280;4415;42.152;24.744;2023-08-30T14:29:02;98234.56;;;34.62;nan
8758;BME280;4415;42.152;24.744;2023-08-30T14:31:28;98221.97;;;34.58;nan
8758;BME280;4415;42.152;24.744;2023-08-30T14:33:55;98222.34;;;34.65;nan
8758;BME280;4415;42.152;24.744;2023-08-30T14:36:22;98221.16;;;34.43;nan
8758;BME280;4415;42.152;24.744;2023-08-30T14:38:48;98226.59;;;34.46;nan
8758;BME280;4415;42.152;24.744;2023-08-30T14:41:13;98235.06;;;34.37;nan
8758;BME280;4415;42.152;24.744;2023-08-30T14:43:41;98224.47;;;34.18;nan
8758;BME280;4415;42.152;24.744;2023-08-30T14:46:06;98232.47;;;34.10;nan
8758;BME280;4415;42.152;24.744;2023-08-30T14:48:32;98214.44;;;34.02;nan
8758;BME280;4415;42.152;24.744;2023-08-30T14:50:59;98229.22;;;34.11;nan
8758;BME280;4415;42.152;24.744;2023-08-30T14:53:24;98243.34;;;34.17;nan
8758;BME280;4415;42.152;24.744;2023-08-30T14:55:50;98223.41;;;34.15;nan
8758;BME280;4415;42.152;24.744;2023-08-30T14:58:15;98239.91;;;34.37;nan
8758;BME280;4415;42.152;24.744;2023-08-30T15:00:41;98224.03;;;34.34;nan
8758;BME280;4415;42.152;24.744;2023-08-30T15:03:06;98227.91;;;34.36;nan
8758;BME280;4415;42.152;24.744;2023-08-30T15:05:32;98222.84;;;34.11;nan
8758;BME280;4415;42.152;24.744;2023-08-30T15:07:57;98248.56;;;34.24;nan
8758;BME280;4415;42.152;24.744;2023-08-30T15:10:23;98236.09;;;34.01;nan
8758;BME280;4415;42.152;24.744;2023-08-30T15:12:49;98244.31;;;34.14;nan